createdAt,value
2018-10-06T00:00:37.039Z,13.85
2018-10-06T00:01:36.996Z,13.72
2018-10-06T00:02:36.984Z,13.72
2018-10-06T00:03:36.975Z,13.70
2018-10-06T00:04:36.983Z,13.67
2018-10-06T00:05:36.968Z,13.74
2018-10-06T00:06:36.940Z,13.74
2018-10-06T00:07:36.925Z,13.78
2018-10-06T00:08:36.921Z,13.93
2018-10-06T00:09:36.948Z,13.92
2018-10-06T00:10:36.898Z,13.95
2018-10-06T00:11:36.904Z,14.05
2018-10-06T00:12:36.877Z,14.07
2018-10-06T00:13:36.866Z,14.10
2018-10-06T00:14:36.889Z,14.08
2018-10-06T00:15:36.845Z,14.08
2018-10-06T00:16:36.829Z,14.08
2018-10-06T00:17:36.823Z,14.12
2018-10-06T00:18:36.814Z,14.12
2018-10-06T00:19:36.813Z,14.12
2018-10-06T00:20:36.792Z,14.22
2018-10-06T00:21:36.785Z,14.23
2018-10-06T00:22:36.769Z,14.12
2018-10-06T00:23:36.776Z,14.00
2018-10-06T00:24:36.759Z,14.10
2018-10-06T00:25:36.756Z,14.14
2018-10-06T00:26:36.725Z,14.10
2018-10-06T00:27:36.711Z,14.11
2018-10-06T00:28:36.707Z,14.08
2018-10-06T00:29:36.693Z,14.08
2018-10-06T00:30:36.680Z,14.11
2018-10-06T00:31:36.684Z,14.05
2018-10-06T00:32:36.685Z,13.93
2018-10-06T00:33:36.650Z,13.93
2018-10-06T00:34:36.639Z,13.83
2018-10-06T00:35:36.648Z,13.78
2018-10-06T00:36:36.631Z,13.85
2018-10-06T00:37:36.606Z,13.86
2018-10-06T00:38:36.603Z,13.79
2018-10-06T00:39:36.581Z,13.85
2018-10-06T00:40:36.579Z,13.72
2018-10-06T00:41:36.585Z,13.71
2018-10-06T00:42:36.571Z,13.70
2018-10-06T00:43:36.545Z,13.60
2018-10-06T00:44:36.544Z,13.50
2018-10-06T00:45:36.520Z,13.47
2018-10-06T00:46:36.511Z,13.50
2018-10-06T00:47:36.503Z,13.46
2018-10-06T00:48:36.489Z,13.50
2018-10-06T00:49:36.493Z,13.52
2018-10-06T00:50:36.467Z,13.49
2018-10-06T00:51:36.452Z,13.59
2018-10-06T00:52:36.450Z,13.50
2018-10-06T00:53:36.448Z,13.33
2018-10-06T00:54:36.450Z,13.37
2018-10-06T00:55:36.423Z,13.33
2018-10-06T00:56:36.412Z,13.31
2018-10-06T00:57:36.390Z,13.33
2018-10-06T00:58:36.383Z,13.25
2018-10-06T00:59:36.385Z,13.19
2018-10-06T01:00:36.401Z,13.20
2018-10-06T01:01:36.349Z,13.18
2018-10-06T01:02:36.336Z,13.15
2018-10-06T01:03:36.601Z,13.22
2018-10-06T01:04:36.344Z,13.16
2018-10-06T01:05:36.324Z,13.18
2018-10-06T01:06:36.295Z,13.22
2018-10-06T01:07:36.287Z,13.16
2018-10-06T01:08:36.269Z,13.09
2018-10-06T01:09:36.261Z,13.08
2018-10-06T01:10:36.318Z,13.13
2018-10-06T01:11:36.237Z,13.08
2018-10-06T01:12:36.231Z,13.15
2018-10-06T01:13:36.221Z,13.16
2018-10-06T01:14:36.227Z,13.12
2018-10-06T01:15:36.202Z,13.09
2018-10-06T01:16:36.200Z,13.22
2018-10-06T01:17:36.177Z,13.22
2018-10-06T01:18:36.164Z,13.38
2018-10-06T01:19:36.152Z,13.33
2018-10-06T01:20:36.164Z,13.23
2018-10-06T01:21:36.165Z,13.19
2018-10-06T01:22:36.124Z,13.35
2018-10-06T01:23:36.120Z,13.35
2018-10-06T01:24:36.098Z,13.37
2018-10-06T01:25:36.093Z,13.38
2018-10-06T01:26:36.079Z,13.41
2018-10-06T01:27:36.090Z,13.35
2018-10-06T01:28:36.081Z,13.33
2018-10-06T01:29:36.048Z,13.37
2018-10-06T01:30:36.040Z,13.39
2018-10-06T01:31:36.028Z,13.33
2018-10-06T01:32:36.011Z,13.37
2018-10-06T01:33:36.020Z,13.31
2018-10-06T01:34:36.015Z,13.22
2018-10-06T01:35:35.986Z,13.23
2018-10-06T01:36:35.982Z,13.18
2018-10-06T01:37:35.959Z,13.28
2018-10-06T01:38:35.950Z,13.22
2018-10-06T01:39:35.953Z,13.22
2018-10-06T01:40:35.932Z,13.22
2018-10-06T01:41:35.920Z,13.22
2018-10-06T01:42:35.913Z,13.28
2018-10-06T01:43:35.917Z,13.23
2018-10-06T01:44:35.900Z,13.16
2018-10-06T01:45:35.887Z,13.20
2018-10-06T01:46:35.864Z,13.16
2018-10-06T01:47:35.852Z,13.27
2018-10-06T01:48:35.850Z,13.23
2018-10-06T01:49:35.863Z,13.18
2018-10-06T01:50:35.820Z,13.19
2018-10-06T01:51:35.815Z,13.18
2018-10-06T01:52:35.803Z,13.19
2018-10-06T01:53:35.791Z,13.18
2018-10-06T01:54:35.797Z,13.20
2018-10-06T01:55:35.789Z,13.03
2018-10-06T01:56:35.752Z,13.04
2018-10-06T01:57:35.744Z,12.97
2018-10-06T01:58:35.735Z,12.91
2018-10-06T01:59:35.724Z,12.86
2018-10-06T02:00:35.739Z,12.83
2018-10-06T02:01:35.703Z,12.83
2018-10-06T02:02:35.693Z,12.83
2018-10-06T02:03:35.686Z,12.79
2018-10-06T02:04:35.674Z,12.78
2018-10-06T02:05:35.659Z,12.67
2018-10-06T02:06:35.666Z,12.70
2018-10-06T02:07:35.679Z,12.68
2018-10-06T02:08:35.623Z,12.73
2018-10-06T02:09:35.622Z,12.73
2018-10-06T02:10:35.603Z,12.73
2018-10-06T02:11:35.610Z,12.70
2018-10-06T02:12:35.591Z,12.85
2018-10-06T02:13:35.573Z,12.94
2018-10-06T02:14:35.584Z,12.83
2018-10-06T02:15:35.581Z,12.86
2018-10-06T02:16:35.538Z,12.83
2018-10-06T02:17:35.529Z,12.83
2018-10-06T02:18:35.524Z,12.90
2018-10-06T02:19:35.543Z,12.94
2018-10-06T02:20:35.503Z,12.91
2018-10-06T02:21:35.498Z,12.97
2018-10-06T02:22:35.499Z,12.97
2018-10-06T02:23:35.490Z,12.91
2018-10-06T02:24:35.491Z,12.91
2018-10-06T02:25:35.445Z,12.94
2018-10-06T02:26:35.433Z,12.91
2018-10-06T02:27:35.438Z,12.83
2018-10-06T02:28:35.426Z,12.85
2018-10-06T02:29:35.431Z,12.70
2018-10-06T02:30:35.390Z,12.73
2018-10-06T02:31:35.375Z,12.68
2018-10-06T02:32:35.374Z,12.78
2018-10-06T02:33:35.358Z,12.73
2018-10-06T02:34:35.368Z,12.76
2018-10-06T02:35:35.339Z,12.82
2018-10-06T02:36:35.361Z,12.85
2018-10-06T02:37:35.313Z,12.86
2018-10-06T02:38:35.306Z,12.80
2018-10-06T02:39:35.320Z,12.90
2018-10-06T02:40:35.278Z,12.97
2018-10-06T02:41:35.273Z,12.85
2018-10-06T02:42:36.161Z,12.90
2018-10-06T02:43:35.247Z,12.95
2018-10-06T02:44:35.246Z,12.93
2018-10-06T02:45:35.246Z,12.93
2018-10-06T02:46:35.218Z,12.95
2018-10-06T02:47:35.208Z,12.94
2018-10-06T02:48:35.196Z,12.97
2018-10-06T02:49:35.201Z,12.97
2018-10-06T02:50:35.178Z,12.97
2018-10-06T02:51:35.164Z,12.85
2018-10-06T02:52:35.159Z,12.90
2018-10-06T02:53:35.142Z,12.80
2018-10-06T02:54:35.148Z,12.82
2018-10-06T02:55:35.118Z,12.86
2018-10-06T02:56:35.112Z,12.78
2018-10-06T02:57:35.123Z,12.82
2018-10-06T02:58:35.088Z,12.85
2018-10-06T02:59:35.097Z,12.86
2018-10-06T03:00:35.079Z,12.82
2018-10-06T03:01:35.053Z,12.72
2018-10-06T03:02:35.043Z,12.70
2018-10-06T03:03:35.031Z,12.72
2018-10-06T03:04:35.053Z,12.79
2018-10-06T03:05:35.012Z,12.85
2018-10-06T03:06:35.002Z,12.85
2018-10-06T03:07:34.992Z,12.79
2018-10-06T03:08:34.988Z,12.76
2018-10-06T03:09:34.973Z,12.82
2018-10-06T03:10:35.011Z,12.91
2018-10-06T03:11:34.957Z,12.87
2018-10-06T03:12:34.933Z,12.83
2018-10-06T03:13:34.922Z,12.86
2018-10-06T03:14:34.913Z,12.79
2018-10-06T03:15:34.915Z,12.85
2018-10-06T03:16:34.893Z,12.79
2018-10-06T03:17:34.880Z,12.82
2018-10-06T03:18:34.870Z,12.95
2018-10-06T03:19:34.861Z,12.83
2018-10-06T03:20:34.863Z,12.86
2018-10-06T03:21:34.838Z,12.85
2018-10-06T03:22:34.859Z,12.76
2018-10-06T03:23:34.811Z,12.78
2018-10-06T03:24:34.808Z,12.65
2018-10-06T03:25:34.793Z,12.70
2018-10-06T03:26:34.783Z,12.65
2018-10-06T03:27:34.768Z,12.73
2018-10-06T03:28:34.784Z,12.83
2018-10-06T03:29:34.750Z,12.73
2018-10-06T03:30:34.739Z,12.79
2018-10-06T03:31:34.735Z,12.76
2018-10-06T03:32:34.717Z,12.87
2018-10-06T03:33:34.725Z,12.76
2018-10-06T03:34:34.694Z,12.80
2018-10-06T03:35:34.682Z,12.82
2018-10-06T03:36:34.680Z,12.82
2018-10-06T03:37:34.664Z,12.85
2018-10-06T03:38:34.671Z,12.80
2018-10-06T03:39:34.644Z,12.87
2018-10-06T03:40:34.627Z,12.80
2018-10-06T03:41:34.636Z,12.85
2018-10-06T03:42:34.609Z,12.82
2018-10-06T03:43:34.603Z,12.82
2018-10-06T03:44:34.623Z,12.78
2018-10-06T03:45:34.575Z,12.82
2018-10-06T03:46:34.567Z,12.76
2018-10-06T03:47:34.553Z,12.80
2018-10-06T03:48:34.550Z,12.78
2018-10-06T03:49:34.533Z,12.87
2018-10-06T03:50:34.541Z,12.82
2018-10-06T03:51:34.515Z,12.85
2018-10-06T03:52:34.496Z,12.76
2018-10-06T03:53:34.488Z,12.68
2018-10-06T03:54:34.484Z,12.82
2018-10-06T03:55:34.482Z,12.73
2018-10-06T03:56:34.466Z,12.65
2018-10-06T03:57:34.448Z,12.68
2018-10-06T03:58:34.434Z,12.62
2018-10-06T03:59:34.422Z,12.62
2018-10-06T04:00:34.446Z,12.57
2018-10-06T04:01:34.408Z,12.47
2018-10-06T04:02:34.392Z,12.45
2018-10-06T04:03:34.387Z,12.43
2018-10-06T04:04:34.366Z,12.50
2018-10-06T04:05:34.390Z,12.45
2018-10-06T04:06:34.354Z,12.42
2018-10-06T04:07:34.337Z,12.32
2018-10-06T04:08:34.333Z,12.42
2018-10-06T04:09:34.317Z,12.43
2018-10-06T04:10:34.306Z,12.37
2018-10-06T04:11:34.318Z,12.42
2018-10-06T04:12:34.282Z,12.45
2018-10-06T04:13:34.272Z,12.45
2018-10-06T04:14:34.263Z,12.54
2018-10-06T04:15:34.255Z,12.43
2018-10-06T04:16:34.264Z,12.47
2018-10-06T04:17:34.228Z,12.49
2018-10-06T04:18:34.217Z,12.47
2018-10-06T04:19:34.208Z,12.43
2018-10-06T04:20:34.218Z,12.39
2018-10-06T04:21:34.205Z,12.36
2018-10-06T04:22:34.177Z,12.22
2018-10-06T04:23:34.167Z,12.17
2018-10-06T04:24:34.150Z,12.06
2018-10-06T04:25:34.142Z,12.03
2018-10-06T04:26:34.153Z,11.99
2018-10-06T04:27:34.143Z,11.86
2018-10-06T04:28:34.184Z,11.86
2018-10-06T04:29:34.103Z,11.87
2018-10-06T04:30:34.096Z,11.75
2018-10-06T04:31:34.093Z,11.81
2018-10-06T04:32:34.071Z,11.69
2018-10-06T04:33:34.073Z,11.68
2018-10-06T04:34:34.046Z,11.68
2018-10-06T04:35:34.055Z,11.70
2018-10-06T04:36:34.024Z,11.69
2018-10-06T04:37:34.023Z,11.66
2018-10-06T04:38:34.000Z,11.70
2018-10-06T04:39:33.988Z,11.78
2018-10-06T04:40:34.000Z,11.72
2018-10-06T04:41:33.978Z,11.77
2018-10-06T04:42:33.959Z,11.83
2018-10-06T04:43:33.957Z,11.90
2018-10-06T04:44:33.946Z,11.90
2018-10-06T04:45:33.942Z,11.83
2018-10-06T04:46:33.918Z,11.86
2018-10-06T04:47:33.924Z,11.88
2018-10-06T04:48:33.889Z,11.91
2018-10-06T04:49:33.881Z,11.95
2018-10-06T04:50:33.891Z,12.09
2018-10-06T04:51:33.867Z,12.24
2018-10-06T04:52:33.853Z,12.29
2018-10-06T04:53:33.846Z,12.32
2018-10-06T04:54:33.828Z,12.42
2018-10-06T04:55:33.839Z,12.35
2018-10-06T04:56:33.802Z,12.37
2018-10-06T04:57:33.814Z,12.39
2018-10-06T04:58:33.783Z,12.37
2018-10-06T04:59:33.769Z,12.24
2018-10-06T05:00:33.767Z,12.29
2018-10-06T05:01:33.765Z,12.36
2018-10-06T05:02:33.766Z,12.35
2018-10-06T05:03:33.843Z,12.20
2018-10-06T05:04:33.722Z,12.18
2018-10-06T05:05:33.709Z,12.13
2018-10-06T05:06:33.724Z,12.15
2018-10-06T05:07:33.689Z,12.13
2018-10-06T05:08:33.694Z,12.12
2018-10-06T05:09:33.663Z,12.13
2018-10-06T05:10:33.653Z,12.17
2018-10-06T05:11:33.669Z,12.09
2018-10-06T05:12:33.646Z,12.17
2018-10-06T05:13:33.622Z,12.21
2018-10-06T05:14:33.611Z,12.20
2018-10-06T05:15:33.602Z,12.35
2018-10-06T05:16:33.584Z,12.35
2018-10-06T05:17:33.601Z,12.36
2018-10-06T05:18:33.569Z,12.40
2018-10-06T05:19:33.564Z,12.43
2018-10-06T05:20:33.559Z,12.45
2018-10-06T05:21:33.533Z,12.42
2018-10-06T05:22:33.524Z,12.37
2018-10-06T05:23:33.539Z,12.39
2018-10-06T05:24:33.504Z,12.39
2018-10-06T05:25:33.515Z,12.36
2018-10-06T05:26:33.489Z,12.29
2018-10-06T05:27:33.472Z,12.35
2018-10-06T05:28:33.480Z,12.32
2018-10-06T05:29:33.524Z,12.39
2018-10-06T05:30:33.438Z,12.35
2018-10-06T05:31:33.422Z,12.35
2018-10-06T05:32:33.457Z,12.32
2018-10-06T05:33:33.454Z,12.39
2018-10-06T05:34:33.394Z,12.36
2018-10-06T05:35:33.452Z,12.31
2018-10-06T05:36:33.376Z,12.36
2018-10-06T05:37:33.369Z,12.25
2018-10-06T05:38:33.373Z,12.12
2018-10-06T05:39:33.342Z,11.99
2018-10-06T05:40:33.324Z,12.00
2018-10-06T05:41:33.318Z,11.97
2018-10-06T05:42:35.282Z,12.06
2018-10-06T05:43:33.752Z,12.21
2018-10-06T05:44:33.387Z,12.35
2018-10-06T05:45:33.283Z,12.31
2018-10-06T05:46:33.335Z,12.43
2018-10-06T05:47:33.276Z,12.45
2018-10-06T05:48:33.288Z,12.46
2018-10-06T05:49:33.228Z,12.47
2018-10-06T05:50:33.224Z,12.57
2018-10-06T05:51:33.220Z,12.57
2018-10-06T05:52:33.199Z,12.60
2018-10-06T05:53:33.240Z,12.61
2018-10-06T05:54:33.222Z,12.70
2018-10-06T05:55:33.167Z,12.72
2018-10-06T05:56:33.168Z,12.65
2018-10-06T05:57:33.146Z,12.75
2018-10-06T05:58:33.170Z,12.76
2018-10-06T05:59:33.124Z,12.82
2018-10-06T06:00:33.113Z,12.82
2018-10-06T06:01:33.099Z,12.83
2018-10-06T06:02:33.087Z,12.86
2018-10-06T06:03:33.094Z,12.85
2018-10-06T06:04:33.067Z,12.94
2018-10-06T06:05:33.059Z,12.90
2018-10-06T06:06:33.059Z,12.91
2018-10-06T06:07:33.034Z,12.93
2018-10-06T06:08:33.041Z,12.98
2018-10-06T06:09:33.043Z,12.95
2018-10-06T06:10:33.009Z,12.95
2018-10-06T06:11:32.992Z,12.94
2018-10-06T06:12:32.980Z,12.93
2018-10-06T06:13:32.970Z,12.94
2018-10-06T06:14:32.984Z,12.97
2018-10-06T06:15:33.034Z,12.95
2018-10-06T06:16:32.940Z,12.98
2018-10-06T06:17:32.936Z,13.03
2018-10-06T06:18:32.934Z,13.12
2018-10-06T06:19:32.912Z,13.03
2018-10-06T06:20:32.910Z,12.98
2018-10-06T06:21:32.972Z,13.15
2018-10-06T06:22:32.875Z,13.09
2018-10-06T06:23:32.868Z,13.20
2018-10-06T06:24:32.872Z,13.19
2018-10-06T06:25:32.837Z,13.09
2018-10-06T06:26:32.828Z,13.20
2018-10-06T06:27:32.834Z,13.23
2018-10-06T06:28:32.834Z,13.18
2018-10-06T06:29:32.799Z,13.12
2018-10-06T06:30:32.791Z,13.15
2018-10-06T06:31:32.820Z,13.20
2018-10-06T06:32:32.781Z,13.15
2018-10-06T06:33:32.777Z,13.09
2018-10-06T06:34:32.740Z,13.16
2018-10-06T06:35:32.809Z,13.22
2018-10-06T06:36:32.805Z,13.20
2018-10-06T06:37:32.716Z,13.19
2018-10-06T06:38:32.699Z,13.20
2018-10-06T06:39:32.705Z,13.22
2018-10-06T06:40:32.678Z,13.31
2018-10-06T06:41:32.687Z,13.31
2018-10-06T06:42:32.661Z,13.35
2018-10-06T06:43:32.671Z,13.39
2018-10-06T06:44:32.809Z,13.39
2018-10-06T06:45:32.624Z,13.54
2018-10-06T06:46:32.619Z,13.62
2018-10-06T06:47:32.600Z,13.60
2018-10-06T06:48:32.615Z,13.71
2018-10-06T06:49:32.587Z,13.74
2018-10-06T06:50:32.572Z,13.78
2018-10-06T06:51:32.561Z,13.75
2018-10-06T06:52:32.547Z,13.83
2018-10-06T06:53:32.532Z,13.79
2018-10-06T06:54:32.548Z,13.85
2018-10-06T06:55:32.517Z,13.90
2018-10-06T06:56:32.554Z,13.90
2018-10-06T06:57:32.545Z,13.86
2018-10-06T06:58:32.481Z,13.95
2018-10-06T06:59:32.494Z,13.97
2018-10-06T07:00:32.471Z,14.00
2018-10-06T07:01:32.481Z,13.97
2018-10-06T07:02:32.448Z,14.07
2018-10-06T07:03:32.456Z,14.11
2018-10-06T07:04:32.438Z,14.08
2018-10-06T07:05:32.406Z,14.15
2018-10-06T07:06:32.401Z,14.26
2018-10-06T07:07:32.384Z,14.28
2018-10-06T07:08:32.382Z,14.25
2018-10-06T07:09:32.398Z,14.36
2018-10-06T07:10:32.361Z,14.43
2018-10-06T07:11:32.342Z,14.35
2018-10-06T07:12:32.395Z,14.36
2018-10-06T07:13:32.340Z,14.40
2018-10-06T07:14:32.313Z,14.44
2018-10-06T07:15:32.316Z,14.41
2018-10-06T07:16:32.301Z,14.43
2018-10-06T07:17:32.331Z,14.55
2018-10-06T07:18:32.411Z,14.54
2018-10-06T07:19:32.278Z,14.59
2018-10-06T07:20:32.277Z,14.62
2018-10-06T07:21:32.240Z,14.72
2018-10-06T07:22:32.225Z,14.70
2018-10-06T07:23:32.234Z,14.72
2018-10-06T07:24:32.300Z,14.81
2018-10-06T07:25:32.201Z,14.84
2018-10-06T07:26:32.182Z,14.82
2018-10-06T07:27:32.170Z,14.82
2018-10-06T07:28:32.280Z,14.89
2018-10-06T07:29:32.141Z,15.02
2018-10-06T07:30:32.159Z,14.97
2018-10-06T07:31:32.121Z,15.09
2018-10-06T07:32:32.114Z,15.21
2018-10-06T07:33:32.105Z,15.28
2018-10-06T07:34:32.095Z,15.43
2018-10-06T07:35:32.107Z,15.52
2018-10-06T07:36:32.067Z,15.59
2018-10-06T07:37:32.060Z,15.57
2018-10-06T07:38:32.070Z,15.58
2018-10-06T07:39:32.037Z,15.67
2018-10-06T07:40:32.053Z,15.70
2018-10-06T07:41:32.017Z,15.68
2018-10-06T07:42:32.001Z,15.72
2018-10-06T07:43:31.999Z,15.72
2018-10-06T07:44:31.985Z,15.67
2018-10-06T07:45:31.975Z,15.86
2018-10-06T07:46:31.982Z,15.82
2018-10-06T07:47:31.953Z,15.82
2018-10-06T07:48:31.944Z,15.91
2018-10-06T07:49:31.926Z,15.90
2018-10-06T07:50:31.917Z,15.92
2018-10-06T07:51:31.928Z,16.01
2018-10-06T07:52:31.906Z,16.12
2018-10-06T07:53:31.909Z,16.16
2018-10-06T07:54:31.878Z,16.20
2018-10-06T07:55:31.875Z,16.33
2018-10-06T07:56:31.874Z,16.36
2018-10-06T07:57:31.843Z,16.42
2018-10-06T07:58:31.856Z,16.53
2018-10-06T07:59:32.671Z,16.56
2018-10-06T08:00:31.908Z,16.69
2018-10-06T08:01:31.848Z,16.69
2018-10-06T08:02:31.792Z,16.72
2018-10-06T08:03:31.777Z,16.79
2018-10-06T08:04:31.776Z,16.96
2018-10-06T08:05:31.773Z,17.06
2018-10-06T08:06:31.861Z,17.06
2018-10-06T08:07:31.749Z,17.16
2018-10-06T08:08:31.722Z,17.19
2018-10-06T08:09:31.709Z,17.24
2018-10-06T08:10:31.698Z,17.29
2018-10-06T08:11:31.714Z,17.27
2018-10-06T08:12:31.913Z,17.31
2018-10-06T08:13:31.858Z,17.29
2018-10-06T08:14:35.643Z,17.39
2018-10-06T08:15:31.645Z,17.57
2018-10-06T08:16:31.666Z,17.60
2018-10-06T08:17:31.628Z,17.65
2018-10-06T08:18:31.618Z,17.71
2018-10-06T08:19:31.628Z,17.79
2018-10-06T08:20:31.703Z,17.87
2018-10-06T08:21:31.636Z,17.89
2018-10-06T08:22:31.566Z,17.92
2018-10-06T08:23:31.572Z,18.01
2018-10-06T08:24:31.579Z,18.00
2018-10-06T08:25:31.559Z,18.10
2018-10-06T08:26:31.565Z,18.10
2018-10-06T08:27:31.518Z,18.11
2018-10-06T08:28:31.505Z,18.25
2018-10-06T08:29:31.503Z,18.26
2018-10-06T08:30:31.496Z,18.29
2018-10-06T08:31:31.517Z,18.40
2018-10-06T08:32:31.461Z,18.47
2018-10-06T08:33:31.473Z,18.52
2018-10-06T08:34:31.465Z,18.56
2018-10-06T08:35:31.434Z,18.65
2018-10-06T08:36:31.423Z,18.65
2018-10-06T08:37:31.456Z,18.73
2018-10-06T08:38:31.410Z,18.83
2018-10-06T08:39:31.389Z,18.93
2018-10-06T08:40:31.395Z,19.09
2018-10-06T08:41:31.400Z,19.12
2018-10-06T08:42:31.459Z,19.12
2018-10-06T08:43:31.352Z,19.18
2018-10-06T08:44:31.355Z,19.12
2018-10-06T08:45:31.327Z,19.16
2018-10-06T08:46:31.327Z,19.09
2018-10-06T08:47:31.302Z,19.27
2018-10-06T08:48:31.303Z,19.30
2018-10-06T08:49:31.283Z,19.39
2018-10-06T08:50:31.278Z,19.48
2018-10-06T08:51:31.346Z,19.59
2018-10-06T08:52:31.287Z,19.55
2018-10-06T08:53:31.294Z,19.64
2018-10-06T08:54:31.240Z,19.70
2018-10-06T08:55:31.219Z,19.71
2018-10-06T08:56:31.272Z,19.79
2018-10-06T08:57:31.217Z,19.82
2018-10-06T08:58:31.189Z,19.89
2018-10-06T08:59:31.284Z,19.95
2018-10-06T09:00:31.161Z,20.03
2018-10-06T09:01:31.157Z,20.21
2018-10-06T09:02:31.221Z,20.29
2018-10-06T09:03:31.131Z,20.47
2018-10-06T09:04:31.118Z,20.47
2018-10-06T09:05:31.116Z,20.48
2018-10-06T09:06:31.103Z,20.63
2018-10-06T09:07:31.108Z,20.65
2018-10-06T09:08:31.076Z,20.51
2018-10-06T09:09:31.069Z,20.47
2018-10-06T09:10:31.056Z,20.55
2018-10-06T09:11:31.059Z,20.56
2018-10-06T09:12:31.054Z,20.72
2018-10-06T09:13:31.019Z,20.78
2018-10-06T09:14:31.006Z,20.77
2018-10-06T09:15:30.998Z,20.88
2018-10-06T09:16:31.010Z,20.92
2018-10-06T09:17:30.982Z,20.87
2018-10-06T09:18:30.990Z,20.97
2018-10-06T09:19:30.970Z,20.96
2018-10-06T09:20:30.946Z,21.05
2018-10-06T09:21:30.936Z,21.11
2018-10-06T09:22:30.938Z,21.18
2018-10-06T09:23:30.938Z,21.22
2018-10-06T09:24:30.977Z,21.21
2018-10-06T09:25:30.897Z,21.35
2018-10-06T09:26:30.875Z,21.29
2018-10-06T09:27:30.867Z,21.30
2018-10-06T09:28:30.859Z,21.45
2018-10-06T09:29:30.874Z,21.33
2018-10-06T09:30:30.839Z,21.33
2018-10-06T09:31:30.826Z,21.30
2018-10-06T09:32:30.829Z,21.29
2018-10-06T09:33:30.854Z,21.25
2018-10-06T09:34:30.807Z,21.27
2018-10-06T09:35:30.785Z,21.30
2018-10-06T09:36:30.788Z,21.32
2018-10-06T09:37:30.791Z,21.33
2018-10-06T09:38:30.753Z,21.50
2018-10-06T09:39:30.737Z,21.52
2018-10-06T09:40:30.753Z,21.52
2018-10-06T09:41:30.724Z,21.69
2018-10-06T09:42:30.893Z,21.60
2018-10-06T09:43:30.697Z,21.60
2018-10-06T09:44:30.718Z,21.58
2018-10-06T09:45:30.672Z,21.60
2018-10-06T09:46:30.686Z,21.70
2018-10-06T09:47:30.654Z,21.76
2018-10-06T09:48:30.659Z,21.89
2018-10-06T09:49:30.634Z,21.93
2018-10-06T09:50:30.620Z,21.98
2018-10-06T09:51:30.616Z,21.98
2018-10-06T09:52:30.637Z,21.96
2018-10-06T09:53:30.651Z,22.00
2018-10-06T09:54:30.598Z,22.04
2018-10-06T09:55:30.571Z,22.13
2018-10-06T09:56:30.555Z,22.11
2018-10-06T09:57:30.565Z,22.14
2018-10-06T09:58:30.539Z,22.25
2018-10-06T09:59:30.616Z,22.26
2018-10-06T10:00:30.514Z,22.13
2018-10-06T10:01:30.522Z,22.29
2018-10-06T10:02:30.522Z,22.35
2018-10-06T10:03:30.483Z,22.33
2018-10-06T10:04:30.500Z,22.39
2018-10-06T10:05:30.554Z,22.29
2018-10-06T10:06:30.449Z,22.36
2018-10-06T10:07:30.441Z,22.43
2018-10-06T10:08:30.450Z,22.53
2018-10-06T10:09:30.469Z,22.54
2018-10-06T10:10:30.420Z,22.50
2018-10-06T10:11:30.399Z,22.60
2018-10-06T10:12:30.422Z,22.60
2018-10-06T10:13:30.394Z,22.76
2018-10-06T10:14:30.363Z,22.81
2018-10-06T10:15:30.453Z,22.83
2018-10-06T10:16:30.362Z,22.94
2018-10-06T10:17:30.427Z,22.85
2018-10-06T10:18:30.496Z,22.80
2018-10-06T10:19:30.343Z,22.73
2018-10-06T10:20:30.298Z,22.78
2018-10-06T10:21:30.285Z,22.76
2018-10-06T10:22:30.541Z,22.90
2018-10-06T10:23:30.315Z,23.00
2018-10-06T10:24:30.279Z,23.08
2018-10-06T10:25:30.275Z,23.17
2018-10-06T10:26:30.310Z,23.24
2018-10-06T10:27:30.221Z,23.36
2018-10-06T10:28:30.339Z,23.37
2018-10-06T10:29:30.230Z,23.47
2018-10-06T10:30:30.229Z,23.54
2018-10-06T10:31:30.204Z,23.61
2018-10-06T10:32:30.169Z,23.59
2018-10-06T10:33:30.162Z,23.62
2018-10-06T10:34:30.225Z,23.55
2018-10-06T10:35:30.149Z,23.62
2018-10-06T10:36:30.131Z,23.68
2018-10-06T10:37:30.307Z,23.73
2018-10-06T10:38:30.127Z,23.80
2018-10-06T10:39:30.173Z,23.86
2018-10-06T10:40:30.091Z,24.05
2018-10-06T10:41:30.081Z,24.13
2018-10-06T10:42:30.069Z,24.23
2018-10-06T10:43:30.075Z,24.21
2018-10-06T10:44:30.116Z,24.29
2018-10-06T10:45:30.035Z,24.24
2018-10-06T10:46:30.053Z,24.42
2018-10-06T10:47:30.047Z,24.42
2018-10-06T10:48:30.082Z,24.38
2018-10-06T10:49:30.053Z,24.36
2018-10-06T10:50:30.015Z,24.43
2018-10-06T10:51:29.986Z,24.48
2018-10-06T10:52:29.961Z,24.39
2018-10-06T10:53:29.964Z,24.32
2018-10-06T10:54:29.976Z,24.24
2018-10-06T10:55:29.980Z,24.29
2018-10-06T10:56:29.917Z,24.32
2018-10-06T10:57:29.943Z,24.43
2018-10-06T10:58:29.935Z,24.58
2018-10-06T10:59:29.964Z,24.68
2018-10-06T11:00:29.908Z,24.77
2018-10-06T11:01:29.865Z,24.84
2018-10-06T11:02:29.852Z,24.99
2018-10-06T11:03:29.840Z,25.04
2018-10-06T11:04:29.844Z,25.29
2018-10-06T11:05:29.814Z,25.43
2018-10-06T11:06:29.826Z,25.72
2018-10-06T11:07:29.831Z,25.60
2018-10-06T11:08:29.826Z,25.75
2018-10-06T11:09:29.794Z,25.87
2018-10-06T11:10:29.760Z,25.62
2018-10-06T11:11:29.770Z,25.43
2018-10-06T11:12:29.743Z,25.18
2018-10-06T11:13:29.732Z,25.41
2018-10-06T11:14:29.726Z,25.41
2018-10-06T11:15:29.718Z,25.40
2018-10-06T11:16:29.721Z,25.58
2018-10-06T11:17:29.683Z,25.66
2018-10-06T11:18:29.672Z,25.85
2018-10-06T11:19:29.682Z,25.84
2018-10-06T11:20:29.655Z,25.73
2018-10-06T11:21:29.651Z,25.78
2018-10-06T11:22:29.633Z,25.78
2018-10-06T11:23:29.620Z,25.78
2018-10-06T11:24:29.631Z,25.95
2018-10-06T11:25:29.596Z,26.18
2018-10-06T11:26:29.606Z,26.18
2018-10-06T11:27:29.582Z,26.19
2018-10-06T11:28:29.681Z,26.37
2018-10-06T11:29:29.626Z,26.55
2018-10-06T11:30:29.539Z,26.58
2018-10-06T11:31:29.539Z,26.41
2018-10-06T11:32:29.527Z,26.53
2018-10-06T11:33:29.516Z,26.58
2018-10-06T11:34:29.513Z,26.33
2018-10-06T11:35:29.515Z,26.23
2018-10-06T11:36:29.477Z,26.23
2018-10-06T11:37:29.617Z,26.44
2018-10-06T11:38:29.483Z,26.16
2018-10-06T11:39:29.444Z,26.19
2018-10-06T11:40:29.434Z,26.19
2018-10-06T11:41:29.442Z,26.10
2018-10-06T11:42:48.224Z,26.10
2018-10-06T11:43:48.225Z,26.23
2018-10-06T11:44:48.242Z,26.55
2018-10-06T11:45:48.221Z,26.81
2018-10-06T11:46:48.190Z,26.68
2018-10-06T11:47:48.177Z,26.51
2018-10-06T11:48:48.164Z,26.33
2018-10-06T11:49:48.203Z,26.58
2018-10-06T11:50:48.141Z,26.53
2018-10-06T11:51:48.133Z,26.52
2018-10-06T11:52:48.123Z,26.51
2018-10-06T11:53:48.180Z,26.41
2018-10-06T11:54:48.113Z,26.16
2018-10-06T11:55:48.093Z,26.34
2018-10-06T11:56:48.119Z,26.56
2018-10-06T11:57:48.070Z,26.43
2018-10-06T11:58:48.092Z,26.13
2018-10-06T11:59:48.093Z,25.78
2018-10-06T12:00:48.144Z,25.65
2018-10-06T12:01:48.057Z,25.66
2018-10-06T12:02:48.033Z,25.70
2018-10-06T12:03:48.135Z,25.78
2018-10-06T12:04:48.059Z,25.91
2018-10-06T12:05:48.037Z,26.02
2018-10-06T12:06:47.994Z,25.99
2018-10-06T12:07:47.964Z,26.03
2018-10-06T12:08:47.952Z,25.77
2018-10-06T12:09:47.944Z,25.65
2018-10-06T12:10:47.963Z,25.50
2018-10-06T12:11:47.922Z,25.50
2018-10-06T12:12:47.909Z,25.51
2018-10-06T12:13:47.902Z,25.70
2018-10-06T12:14:47.889Z,25.77
2018-10-06T12:15:47.894Z,25.77
2018-10-06T12:16:47.876Z,25.78
2018-10-06T12:17:47.883Z,25.68
2018-10-06T12:18:47.850Z,25.53
2018-10-06T12:19:47.838Z,25.29
2018-10-06T12:20:47.849Z,25.38
2018-10-06T12:21:47.829Z,25.58
2018-10-06T12:22:47.798Z,25.66
2018-10-06T12:23:47.790Z,25.78
2018-10-06T12:24:47.962Z,25.93
2018-10-06T12:25:47.917Z,25.77
2018-10-06T12:26:47.832Z,25.80
2018-10-06T12:27:48.225Z,25.46
2018-10-06T12:28:47.741Z,25.47
2018-10-06T12:29:47.740Z,25.50
2018-10-06T12:30:47.774Z,25.35
2018-10-06T12:31:47.706Z,25.29
2018-10-06T12:32:47.692Z,25.26
2018-10-06T12:33:47.691Z,25.36
2018-10-06T12:34:47.813Z,25.35
2018-10-06T12:35:47.842Z,25.41
2018-10-06T12:36:47.673Z,25.26
2018-10-06T12:37:47.643Z,25.40
2018-10-06T12:38:47.634Z,25.53
2018-10-06T12:39:47.619Z,25.28
2018-10-06T12:40:47.613Z,25.11
2018-10-06T12:41:47.615Z,25.31
2018-10-06T12:42:47.588Z,25.18
2018-10-06T12:43:47.575Z,25.16
2018-10-06T12:44:47.569Z,25.13
2018-10-06T12:45:47.601Z,25.08
2018-10-06T12:46:47.564Z,25.04
2018-10-06T12:47:47.553Z,25.14
2018-10-06T12:48:47.540Z,25.28
2018-10-06T12:49:47.514Z,25.26
2018-10-06T12:50:47.519Z,25.31
2018-10-06T12:51:47.510Z,25.25
2018-10-06T12:52:47.479Z,25.21